sensor_id;sensor_type;location;lat;lon;timestamp;P1;durP1;ratioP1;P2;durP2;ratioP2
79566;SDS011;69030;48.126;7.816;2024-02-26T00:00:32;1.17;;;0.68;;
79566;SDS011;69030;48.126;7.816;2024-02-26T00:02:59;2.63;;;1.15;;
79566;SDS011;69030;48.126;7.816;2024-02-26T00:05:25;2.08;;;0.60;;
79566;SDS011;69030;48.126;7.816;2024-02-26T00:07:51;1.40;;;0.75;;
79566;SDS011;69030;48.126;7.816;2024-02-26T00:10:16;2.05;;;1.05;;
79566;SDS011;69030;48.126;7.816;2024-02-26T00:12:42;2.60;;;0.40;;
79566;SDS011;69030;48.126;7.816;2024-02-26T00:15:08;1.20;;;0.52;;
79566;SDS011;69030;48.126;7.816;2024-02-26T00:17:34;1.30;;;0.60;;
79566;SDS011;69030;48.126;7.816;2024-02-26T00:20:01;0.70;;;0.43;;
79566;SDS011;69030;48.126;7.816;2024-02-26T00:22:29;1.85;;;1.75;;
79566;SDS011;69030;48.126;7.816;2024-02-26T00:24:56;2.33;;;0.52;;
79566;SDS011;69030;48.126;7.816;2024-02-26T00:27:21;0.80;;;0.70;;
79566;SDS011;69030;48.126;7.816;2024-02-26T00:29:47;3.40;;;0.90;;
79566;SDS011;69030;48.126;7.816;2024-02-26T00:32:13;1.83;;;0.75;;
79566;SDS011;69030;48.126;7.816;2024-02-26T00:34:39;2.50;;;0.88;;
79566;SDS011;69030;48.126;7.816;2024-02-26T00:37:04;0.95;;;0.50;;
79566;SDS011;69030;48.126;7.816;2024-02-26T00:39:30;1.30;;;0.63;;
79566;SDS011;69030;48.126;7.816;2024-02-26T00:41:56;2.83;;;1.88;;
79566;SDS011;69030;48.126;7.816;2024-02-26T00:44:22;2.33;;;0.88;;
79566;SDS011;69030;48.126;7.816;2024-02-26T00:46:47;1.30;;;0.88;;
79566;SDS011;69030;48.126;7.816;2024-02-26T00:49:12;2.83;;;0.75;;
79566;SDS011;69030;48.126;7.816;2024-02-26T00:51:38;2.00;;;0.55;;
79566;SDS011;69030;48.126;7.816;2024-02-26T00:54:04;4.35;;;3.72;;
79566;SDS011;69030;48.126;7.816;2024-02-26T00:56:29;2.83;;;1.15;;
79566;SDS011;69030;48.126;7.816;2024-02-26T00:58:55;1.88;;;0.80;;
79566;SDS011;69030;48.126;7.816;2024-02-26T01:01:20;1.73;;;0.93;;
79566;SDS011;69030;48.126;7.816;2024-02-26T01:03:46;3.47;;;1.55;;
79566;SDS011;69030;48.126;7.816;2024-02-26T01:06:13;3.00;;;2.33;;
79566;SDS011;69030;48.126;7.816;2024-02-26T01:08:39;2.38;;;1.17;;
79566;SDS011;69030;48.126;7.816;2024-02-26T01:11:05;2.28;;;0.90;;
79566;SDS011;69030;48.126;7.816;2024-02-26T01:13:30;3.55;;;1.25;;
79566;SDS011;69030;48.126;7.816;2024-02-26T01:15:56;4.60;;;2.40;;
79566;SDS011;69030;48.126;7.816;2024-02-26T01:18:21;2.70;;;2.50;;
79566;SDS011;69030;48.126;7.816;2024-02-26T01:20:47;2.05;;;1.00;;
79566;SDS011;69030;48.126;7.816;2024-02-26T01:23:12;3.90;;;1.33;;
79566;SDS011;69030;48.126;7.816;2024-02-26T01:25:38;4.95;;;2.13;;
79566;SDS011;69030;48.126;7.816;2024-02-26T01:28:04;2.38;;;1.02;;
79566;SDS011;69030;48.126;7.816;2024-02-26T01:30:30;2.20;;;1.25;;
79566;SDS011;69030;48.126;7.816;2024-02-26T01:32:56;2.25;;;1.25;;
79566;SDS011;69030;48.126;7.816;2024-02-26T01:35:23;1.48;;;0.82;;
79566;SDS011;69030;48.126;7.816;2024-02-26T01:37:48;2.50;;;0.75;;
79566;SDS011;69030;48.126;7.816;2024-02-26T01:40:14;3.25;;;3.05;;
79566;SDS011;69030;48.126;7.816;2024-02-26T01:42:43;2.53;;;2.33;;
79566;SDS011;69030;48.126;7.816;2024-02-26T01:45:11;5.03;;;2.75;;
79566;SDS011;69030;48.126;7.816;2024-02-26T01:47:40;2.30;;;1.23;;
79566;SDS011;69030;48.126;7.816;2024-02-26T01:50:08;2.40;;;1.92;;
79566;SDS011;69030;48.126;7.816;2024-02-26T01:52:34;2.88;;;2.33;;
79566;SDS011;69030;48.126;7.816;2024-02-26T01:54:59;2.58;;;1.20;;
79566;SDS011;69030;48.126;7.816;2024-02-26T01:57:26;4.32;;;3.03;;
79566;SDS011;69030;48.126;7.816;2024-02-26T01:59:53;4.45;;;2.33;;
79566;SDS011;69030;48.126;7.816;2024-02-26T02:02:19;4.15;;;1.42;;
79566;SDS011;69030;48.126;7.816;2024-02-26T02:04:44;2.22;;;1.02;;
79566;SDS011;69030;48.126;7.816;2024-02-26T02:07:10;1.60;;;0.70;;
79566;SDS011;69030;48.126;7.816;2024-02-26T02:09:36;3.20;;;2.42;;
79566;SDS011;69030;48.126;7.816;2024-02-26T02:12:01;1.33;;;0.90;;
79566;SDS011;69030;48.126;7.816;2024-02-26T02:14:27;2.05;;;1.90;;
79566;SDS011;69030;48.126;7.816;2024-02-26T02:16:52;2.00;;;1.30;;
79566;SDS011;69030;48.126;7.816;2024-02-26T02:19:18;2.63;;;2.22;;
79566;SDS011;69030;48.126;7.816;2024-02-26T02:21:43;2.92;;;2.35;;
79566;SDS011;69030;48.126;7.816;2024-02-26T02:24:09;3.70;;;3.42;;
79566;SDS011;69030;48.126;7.816;2024-02-26T02:26:34;2.38;;;1.88;;
79566;SDS011;69030;48.126;7.816;2024-02-26T02:29:00;2.20;;;1.00;;
79566;SDS011;69030;48.126;7.816;2024-02-26T02:31:25;3.78;;;1.35;;
79566;SDS011;69030;48.126;7.816;2024-02-26T02:33:51;1.85;;;0.98;;
79566;SDS011;69030;48.126;7.816;2024-02-26T02:36:17;2.35;;;0.73;;
79566;SDS011;69030;48.126;7.816;2024-02-26T02:38:49;2.10;;;1.00;;
79566;SDS011;69030;48.126;7.816;2024-02-26T02:41:15;1.88;;;0.93;;
79566;SDS011;69030;48.126;7.816;2024-02-26T02:43:41;2.00;;;1.02;;
79566;SDS011;69030;48.126;7.816;2024-02-26T02:46:06;1.77;;;0.70;;
79566;SDS011;69030;48.126;7.816;2024-02-26T02:48:32;2.08;;;1.15;;
79566;SDS011;69030;48.126;7.816;2024-02-26T02:50:57;3.58;;;2.88;;
79566;SDS011;69030;48.126;7.816;2024-02-26T02:53:23;2.83;;;0.88;;
79566;SDS011;69030;48.126;7.816;2024-02-26T02:55:48;2.10;;;1.85;;
79566;SDS011;69030;48.126;7.816;2024-02-26T02:58:13;2.58;;;2.22;;
79566;SDS011;69030;48.126;7.816;2024-02-26T03:00:39;3.30;;;1.95;;
79566;SDS011;69030;48.126;7.816;2024-02-26T03:03:04;2.00;;;0.77;;
79566;SDS011;69030;48.126;7.816;2024-02-26T03:05:30;2.65;;;2.47;;
79566;SDS011;69030;48.126;7.816;2024-02-26T03:07:55;1.15;;;0.70;;
79566;SDS011;69030;48.126;7.816;2024-02-26T03:10:21;1.92;;;1.17;;
79566;SDS011;69030;48.126;7.816;2024-02-26T03:12:46;1.00;;;0.80;;
79566;SDS011;69030;48.126;7.816;2024-02-26T03:15:12;3.42;;;1.67;;
79566;SDS011;69030;48.126;7.816;2024-02-26T03:17:37;4.15;;;0.80;;
79566;SDS011;69030;48.126;7.816;2024-02-26T03:20:03;1.55;;;0.93;;
79566;SDS011;69030;48.126;7.816;2024-02-26T03:22:30;2.42;;;0.70;;
79566;SDS011;69030;48.126;7.816;2024-02-26T03:24:56;1.92;;;1.50;;
79566;SDS011;69030;48.126;7.816;2024-02-26T03:27:22;1.48;;;0.60;;
79566;SDS011;69030;48.126;7.816;2024-02-26T03:29:48;1.60;;;0.82;;
79566;SDS011;69030;48.126;7.816;2024-02-26T03:32:14;0.93;;;0.50;;
79566;SDS011;69030;48.126;7.816;2024-02-26T03:34:39;0.93;;;0.82;;
79566;SDS011;69030;48.126;7.816;2024-02-26T03:37:06;1.77;;;0.47;;
79566;SDS011;69030;48.126;7.816;2024-02-26T03:39:32;1.02;;;0.63;;
79566;SDS011;69030;48.126;7.816;2024-02-26T03:41:58;3.67;;;1.75;;
79566;SDS011;69030;48.126;7.816;2024-02-26T03:44:24;1.08;;;0.60;;
79566;SDS011;69030;48.126;7.816;2024-02-26T03:46:49;1.67;;;1.58;;
79566;SDS011;69030;48.126;7.816;2024-02-26T03:49:15;3.47;;;0.50;;
79566;SDS011;69030;48.126;7.816;2024-02-26T03:51:40;1.23;;;0.88;;
79566;SDS011;69030;48.126;7.816;2024-02-26T03:54:05;0.90;;;0.38;;
79566;SDS011;69030;48.126;7.816;2024-02-26T03:56:31;1.30;;;0.82;;
79566;SDS011;69030;48.126;7.816;2024-02-26T03:58:56;1.42;;;1.33;;
79566;SDS011;69030;48.126;7.816;2024-02-26T04:01:22;1.45;;;1.23;;
79566;SDS011;69030;48.126;7.816;2024-02-26T04:03:48;2.30;;;1.20;;
79566;SDS011;69030;48.126;7.816;2024-02-26T04:06:13;2.58;;;2.40;;
79566;SDS011;69030;48.126;7.816;2024-02-26T04:08:40;2.50;;;1.40;;
79566;SDS011;69030;48.126;7.816;2024-02-26T04:11:06;3.22;;;0.63;;
79566;SDS011;69030;48.126;7.816;2024-02-26T04:13:35;3.63;;;2.20;;
79566;SDS011;69030;48.126;7.816;2024-02-26T04:16:03;1.00;;;0.68;;
79566;SDS011;69030;48.126;7.816;2024-02-26T04:18:31;1.40;;;1.30;;
79566;SDS011;69030;48.126;7.816;2024-02-26T04:20:57;3.80;;;2.20;;
79566;SDS011;69030;48.126;7.816;2024-02-26T04:23:23;1.52;;;0.90;;
79566;SDS011;69030;48.126;7.816;2024-02-26T04:25:49;2.42;;;0.70;;
79566;SDS011;69030;48.126;7.816;2024-02-26T04:28:14;1.95;;;1.45;;
79566;SDS011;69030;48.126;7.816;2024-02-26T04:30:40;1.08;;;0.52;;
79566;SDS011;69030;48.126;7.816;2024-02-26T04:33:06;1.63;;;1.25;;
79566;SDS011;69030;48.126;7.816;2024-02-26T04:35:32;1.40;;;0.73;;
79566;SDS011;69030;48.126;7.816;2024-02-26T04:37:57;0.70;;;0.63;;
79566;SDS011;69030;48.126;7.816;2024-02-26T04:40:23;1.50;;;1.27;;
79566;SDS011;69030;48.126;7.816;2024-02-26T04:42:49;1.77;;;0.65;;
79566;SDS011;69030;48.126;7.816;2024-02-26T04:45:15;1.65;;;1.55;;
79566;SDS011;69030;48.126;7.816;2024-02-26T04:47:40;1.95;;;1.33;;
79566;SDS011;69030;48.126;7.816;2024-02-26T04:50:06;2.35;;;2.15;;
79566;SDS011;69030;48.126;7.816;2024-02-26T04:52:32;1.30;;;0.75;;
79566;SDS011;69030;48.126;7.816;2024-02-26T04:54:57;2.95;;;2.78;;
79566;SDS011;69030;48.126;7.816;2024-02-26T04:57:24;0.80;;;0.63;;
79566;SDS011;69030;48.126;7.816;2024-02-26T04:59:51;1.13;;;0.85;;
79566;SDS011;69030;48.126;7.816;2024-02-26T05:02:16;1.20;;;0.55;;
79566;SDS011;69030;48.126;7.816;2024-02-26T05:04:42;1.88;;;0.52;;
79566;SDS011;69030;48.126;7.816;2024-02-26T05:07:08;1.58;;;1.10;;
79566;SDS011;69030;48.126;7.816;2024-02-26T05:09:33;1.17;;;0.93;;
79566;SDS011;69030;48.126;7.816;2024-02-26T05:11:59;1.63;;;1.50;;
79566;SDS011;69030;48.126;7.816;2024-02-26T05:14:25;0.85;;;0.73;;
79566;SDS011;69030;48.126;7.816;2024-02-26T05:16:51;1.80;;;1.15;;
79566;SDS011;69030;48.126;7.816;2024-02-26T05:19:16;3.10;;;2.33;;
79566;SDS011;69030;48.126;7.816;2024-02-26T05:21:42;1.65;;;1.45;;
79566;SDS011;69030;48.126;7.816;2024-02-26T05:24:09;1.25;;;1.00;;
79566;SDS011;69030;48.126;7.816;2024-02-26T05:26:34;1.65;;;1.55;;
79566;SDS011;69030;48.126;7.816;2024-02-26T05:29:00;1.77;;;1.67;;
79566;SDS011;69030;48.126;7.816;2024-02-26T05:31:26;1.02;;;0.28;;
79566;SDS011;69030;48.126;7.816;2024-02-26T05:33:52;1.02;;;0.70;;
79566;SDS011;69030;48.126;7.816;2024-02-26T05:36:20;1.67;;;1.50;;
79566;SDS011;69030;48.126;7.816;2024-02-26T05:38:47;0.73;;;0.43;;
79566;SDS011;69030;48.126;7.816;2024-02-26T05:41:15;1.42;;;1.33;;
79566;SDS011;69030;48.126;7.816;2024-02-26T05:43:41;0.93;;;0.47;;
79566;SDS011;69030;48.126;7.816;2024-02-26T05:46:06;1.60;;;1.50;;
79566;SDS011;69030;48.126;7.816;2024-02-26T05:48:32;2.92;;;1.45;;
79566;SDS011;69030;48.126;7.816;2024-02-26T05:50:57;0.75;;;0.47;;
79566;SDS011;69030;48.126;7.816;2024-02-26T05:53:23;1.65;;;1.52;;
79566;SDS011;69030;48.126;7.816;2024-02-26T05:55:48;1.02;;;0.55;;
79566;SDS011;69030;48.126;7.816;2024-02-26T05:58:13;1.25;;;1.15;;
79566;SDS011;69030;48.126;7.816;2024-02-26T06:00:39;2.25;;;1.33;;
79566;SDS011;69030;48.126;7.816;2024-02-26T06:03:04;3.03;;;1.25;;
79566;SDS011;69030;48.126;7.816;2024-02-26T06:05:30;3.47;;;2.95;;
79566;SDS011;69030;48.126;7.816;2024-02-26T06:07:55;1.77;;;0.82;;
79566;SDS011;69030;48.126;7.816;2024-02-26T06:10:21;1.83;;;1.05;;
79566;SDS011;69030;48.126;7.816;2024-02-26T06:12:46;1.38;;;1.27;;
79566;SDS011;69030;48.126;7.816;2024-02-26T06:15:13;1.60;;;1.50;;
79566;SDS011;69030;48.126;7.816;2024-02-26T06:17:39;2.17;;;2.08;;
79566;SDS011;69030;48.126;7.816;2024-02-26T06:20:06;1.50;;;1.30;;
79566;SDS011;69030;48.126;7.816;2024-02-26T06:22:40;1.67;;;1.58;;
79566;SDS011;69030;48.126;7.816;2024-02-26T06:25:07;1.65;;;1.55;;
79566;SDS011;69030;48.126;7.816;2024-02-26T06:27:33;0.88;;;0.57;;
79566;SDS011;69030;48.126;7.816;2024-02-26T06:29:59;0.65;;;0.40;;
79566;SDS011;69030;48.126;7.816;2024-02-26T06:32:24;1.85;;;0.90;;
79566;SDS011;69030;48.126;7.816;2024-02-26T06:37:18;2.67;;;1.70;;
79566;SDS011;69030;48.126;7.816;2024-02-26T06:39:43;1.73;;;1.20;;
79566;SDS011;69030;48.126;7.816;2024-02-26T06:42:09;1.42;;;0.95;;
79566;SDS011;69030;48.126;7.816;2024-02-26T06:44:35;1.83;;;0.75;;
79566;SDS011;69030;48.126;7.816;2024-02-26T06:47:00;2.90;;;2.33;;
79566;SDS011;69030;48.126;7.816;2024-02-26T06:49:26;1.60;;;0.63;;
79566;SDS011;69030;48.126;7.816;2024-02-26T06:51:53;3.15;;;2.88;;
79566;SDS011;69030;48.126;7.816;2024-02-26T06:54:18;4.45;;;1.70;;
79566;SDS011;69030;48.126;7.816;2024-02-26T06:56:44;2.67;;;1.25;;
79566;SDS011;69030;48.126;7.816;2024-02-26T06:59:10;2.75;;;2.55;;
79566;SDS011;69030;48.126;7.816;2024-02-26T07:01:35;3.53;;;1.42;;
79566;SDS011;69030;48.126;7.816;2024-02-26T07:04:01;2.47;;;1.92;;
79566;SDS011;69030;48.126;7.816;2024-02-26T07:06:27;1.92;;;1.83;;
79566;SDS011;69030;48.126;7.816;2024-02-26T07:08:52;2.17;;;0.32;;
79566;SDS011;69030;48.126;7.816;2024-02-26T07:11:18;1.15;;;1.05;;
79566;SDS011;69030;48.126;7.816;2024-02-26T07:13:45;1.45;;;1.35;;
79566;SDS011;69030;48.126;7.816;2024-02-26T07:16:11;0.95;;;0.82;;
79566;SDS011;69030;48.126;7.816;2024-02-26T07:18:37;2.35;;;0.60;;
79566;SDS011;69030;48.126;7.816;2024-02-26T07:21:04;2.45;;;2.28;;
79566;SDS011;69030;48.126;7.816;2024-02-26T07:23:29;2.35;;;2.25;;
79566;SDS011;69030;48.126;7.816;2024-02-26T07:25:55;1.13;;;0.88;;
79566;SDS011;69030;48.126;7.816;2024-02-26T07:28:20;3.25;;;2.95;;
79566;SDS011;69030;48.126;7.816;2024-02-26T07:30:45;2.28;;;1.35;;
79566;SDS011;69030;48.126;7.816;2024-02-26T07:33:11;1.85;;;1.08;;
79566;SDS011;69030;48.126;7.816;2024-02-26T07:35:37;0.90;;;0.65;;
79566;SDS011;69030;48.126;7.816;2024-02-26T07:38:04;1.27;;;0.85;;
79566;SDS011;69030;48.126;7.816;2024-02-26T07:40:29;4.15;;;0.90;;
79566;SDS011;69030;48.126;7.816;2024-02-26T07:42:55;2.05;;;1.67;;
79566;SDS011;69030;48.126;7.816;2024-02-26T07:45:21;2.97;;;1.83;;
79566;SDS011;69030;48.126;7.816;2024-02-26T07:47:47;2.85;;;2.65;;
79566;SDS011;69030;48.126;7.816;2024-02-26T07:50:13;0.82;;;0.50;;
79566;SDS011;69030;48.126;7.816;2024-02-26T07:52:39;1.13;;;0.90;;
79566;SDS011;69030;48.126;7.816;2024-02-26T07:55:05;15.27;;;7.72;;
79566;SDS011;69030;48.126;7.816;2024-02-26T07:57:32;8.57;;;5.05;;
79566;SDS011;69030;48.126;7.816;2024-02-26T08:00:04;10.43;;;5.93;;
79566;SDS011;69030;48.126;7.816;2024-02-26T08:02:32;7.82;;;5.07;;
79566;SDS011;69030;48.126;7.816;2024-02-26T08:04:59;5.40;;;2.13;;
79566;SDS011;69030;48.126;7.816;2024-02-26T08:07:24;1.63;;;0.85;;
79566;SDS011;69030;48.126;7.816;2024-02-26T08:09:50;4.95;;;1.20;;
79566;SDS011;69030;48.126;7.816;2024-02-26T08:12:15;3.38;;;3.10;;
79566;SDS011;69030;48.126;7.816;2024-02-26T08:14:41;4.28;;;1.33;;
79566;SDS011;69030;48.126;7.816;2024-02-26T08:17:09;4.25;;;3.88;;
79566;SDS011;69030;48.126;7.816;2024-02-26T08:19:34;3.90;;;3.40;;
79566;SDS011;69030;48.126;7.816;2024-02-26T08:22:00;4.35;;;3.17;;
79566;SDS011;69030;48.126;7.816;2024-02-26T08:24:26;3.50;;;3.13;;
79566;SDS011;69030;48.126;7.816;2024-02-26T08:26:52;4.82;;;3.53;;
79566;SDS011;69030;48.126;7.816;2024-02-26T08:29:17;3.42;;;2.67;;
79566;SDS011;69030;48.126;7.816;2024-02-26T08:31:43;5.72;;;3.83;;
79566;SDS011;69030;48.126;7.816;2024-02-26T08:34:09;3.75;;;2.75;;
79566;SDS011;69030;48.126;7.816;2024-02-26T08:36:34;4.72;;;3.97;;
79566;SDS011;69030;48.126;7.816;2024-02-26T08:39:00;3.20;;;1.92;;
79566;SDS011;69030;48.126;7.816;2024-02-26T08:41:26;8.02;;;3.78;;
79566;SDS011;69030;48.126;7.816;2024-02-26T08:43:52;6.75;;;5.18;;
79566;SDS011;69030;48.126;7.816;2024-02-26T08:46:17;5.63;;;4.40;;
79566;SDS011;69030;48.126;7.816;2024-02-26T08:48:43;3.83;;;2.45;;
79566;SDS011;69030;48.126;7.816;2024-02-26T08:51:09;4.53;;;2.22;;
79566;SDS011;69030;48.126;7.816;2024-02-26T08:53:38;3.70;;;2.17;;
79566;SDS011;69030;48.126;7.816;2024-02-26T08:56:04;5.45;;;3.50;;
79566;SDS011;69030;48.126;7.816;2024-02-26T08:58:30;5.68;;;2.45;;
79566;SDS011;69030;48.126;7.816;2024-02-26T09:00:55;5.53;;;2.38;;
79566;SDS011;69030;48.126;7.816;2024-02-26T09:03:21;5.97;;;2.90;;
79566;SDS011;69030;48.126;7.816;2024-02-26T09:05:47;5.63;;;3.60;;
79566;SDS011;69030;48.126;7.816;2024-02-26T09:08:12;16.63;;;5.72;;
79566;SDS011;69030;48.126;7.816;2024-02-26T09:10:38;10.40;;;5.15;;
79566;SDS011;69030;48.126;7.816;2024-02-26T09:13:04;17.23;;;8.20;;
79566;SDS011;69030;48.126;7.816;2024-02-26T09:15:30;8.45;;;5.63;;
79566;SDS011;69030;48.126;7.816;2024-02-26T09:17:55;4.60;;;4.05;;
79566;SDS011;69030;48.126;7.816;2024-02-26T09:20:21;4.30;;;3.17;;
79566;SDS011;69030;48.126;7.816;2024-02-26T15:33:09;1.50;;;0.43;;
79566;SDS011;69030;48.126;7.816;2024-02-26T15:35:34;2.08;;;1.98;;
79566;SDS011;69030;48.126;7.816;2024-02-26T15:38:02;3.55;;;0.55;;
79566;SDS011;69030;48.126;7.816;2024-02-26T15:40:28;0.55;;;0.32;;
79566;SDS011;69030;48.126;7.816;2024-02-26T15:42:53;0.85;;;0.75;;
79566;SDS011;69030;48.126;7.816;2024-02-26T15:45:19;1.23;;;1.17;;
79566;SDS011;69030;48.126;7.816;2024-02-26T15:47:44;0.43;;;0.20;;
79566;SDS011;69030;48.126;7.816;2024-02-26T15:50:10;1.55;;;1.45;;
79566;SDS011;69030;48.126;7.816;2024-02-26T15:52:39;1.38;;;1.17;;
79566;SDS011;69030;48.126;7.816;2024-02-26T15:55:05;2.00;;;0.70;;
79566;SDS011;69030;48.126;7.816;2024-02-26T15:57:31;1.35;;;0.20;;
79566;SDS011;69030;48.126;7.816;2024-02-26T15:59:58;1.58;;;1.48;;
79566;SDS011;69030;48.126;7.816;2024-02-26T16:02:26;1.35;;;1.10;;
79566;SDS011;69030;48.126;7.816;2024-02-26T16:04:52;1.52;;;1.42;;
79566;SDS011;69030;48.126;7.816;2024-02-26T16:08:05;1.75;;;1.23;;
79566;SDS011;69030;48.126;7.816;2024-02-26T16:10:07;1.17;;;1.08;;
79566;SDS011;69030;48.126;7.816;2024-02-26T16:12:37;1.35;;;0.70;;
79566;SDS011;69030;48.126;7.816;2024-02-26T16:15:04;1.25;;;1.15;;
79566;SDS011;69030;48.126;7.816;2024-02-26T16:17:31;1.63;;;0.60;;
79566;SDS011;69030;48.126;7.816;2024-02-26T16:20:00;1.17;;;1.15;;
79566;SDS011;69030;48.126;7.816;2024-02-26T16:22:29;1.27;;;0.85;;
79566;SDS011;69030;48.126;7.816;2024-02-26T16:24:55;1.20;;;0.77;;
79566;SDS011;69030;48.126;7.816;2024-02-26T16:27:21;3.78;;;0.90;;
79566;SDS011;69030;48.126;7.816;2024-02-26T16:29:47;7.55;;;1.48;;
79566;SDS011;69030;48.126;7.816;2024-02-26T16:32:14;1.05;;;0.90;;
79566;SDS011;69030;48.126;7.816;2024-02-26T16:34:40;1.40;;;1.30;;
79566;SDS011;69030;48.126;7.816;2024-02-26T16:37:10;1.50;;;0.73;;
79566;SDS011;69030;48.126;7.816;2024-02-26T16:39:39;1.38;;;1.27;;
79566;SDS011;69030;48.126;7.816;2024-02-26T16:42:06;1.15;;;1.00;;
79566;SDS011;69030;48.126;7.816;2024-02-26T16:44:40;2.45;;;2.28;;
79566;SDS011;69030;48.126;7.816;2024-02-26T16:47:12;0.77;;;0.15;;
79566;SDS011;69030;48.126;7.816;2024-02-26T16:49:38;1.08;;;0.32;;
79566;SDS011;69030;48.126;7.816;2024-02-26T16:52:04;1.17;;;1.00;;
79566;SDS011;69030;48.126;7.816;2024-02-26T16:54:30;1.90;;;1.45;;
79566;SDS011;69030;48.126;7.816;2024-02-26T16:56:55;1.63;;;1.52;;
79566;SDS011;69030;48.126;7.816;2024-02-26T16:59:20;1.05;;;1.00;;
79566;SDS011;69030;48.126;7.816;2024-02-26T17:01:46;1.10;;;1.00;;
79566;SDS011;69030;48.126;7.816;2024-02-26T17:04:12;1.20;;;0.98;;
79566;SDS011;69030;48.126;7.816;2024-02-26T17:06:38;1.90;;;1.23;;
79566;SDS011;69030;48.126;7.816;2024-02-26T17:09:03;2.75;;;2.55;;
79566;SDS011;69030;48.126;7.816;2024-02-26T17:11:30;2.15;;;1.63;;
79566;SDS011;69030;48.126;7.816;2024-02-26T17:19:38;1.20;;;1.08;;
79566;SDS011;69030;48.126;7.816;2024-02-26T17:22:04;3.20;;;2.22;;
79566;SDS011;69030;48.126;7.816;2024-02-26T17:24:30;2.42;;;1.67;;
79566;SDS011;69030;48.126;7.816;2024-02-26T17:26:55;1.60;;;1.50;;
79566;SDS011;69030;48.126;7.816;2024-02-26T17:29:20;3.17;;;1.85;;
79566;SDS011;69030;48.126;7.816;2024-02-26T17:31:49;1.10;;;0.80;;
79566;SDS011;69030;48.126;7.816;2024-02-26T17:34:14;2.45;;;1.88;;
79566;SDS011;69030;48.126;7.816;2024-02-26T17:36:40;1.85;;;1.67;;
79566;SDS011;69030;48.126;7.816;2024-02-26T17:39:06;2.05;;;1.55;;
79566;SDS011;69030;48.126;7.816;2024-02-26T17:41:32;1.23;;;0.50;;
79566;SDS011;69030;48.126;7.816;2024-02-26T17:43:57;1.77;;;0.68;;
79566;SDS011;69030;48.126;7.816;2024-02-26T17:46:22;2.85;;;1.42;;
79566;SDS011;69030;48.126;7.816;2024-02-26T17:48:48;2.17;;;0.73;;
79566;SDS011;69030;48.126;7.816;2024-02-26T17:51:13;2.50;;;2.20;;
79566;SDS011;69030;48.126;7.816;2024-02-26T17:53:39;3.70;;;2.47;;
79566;SDS011;69030;48.126;7.816;2024-02-26T17:56:06;4.03;;;2.88;;
79566;SDS011;69030;48.126;7.816;2024-02-26T17:58:32;2.97;;;2.15;;
79566;SDS011;69030;48.126;7.816;2024-02-26T18:01:05;2.92;;;2.50;;
79566;SDS011;69030;48.126;7.816;2024-02-26T18:03:31;2.05;;;1.85;;
79566;SDS011;69030;48.126;7.816;2024-02-26T18:05:56;3.03;;;2.25;;
79566;SDS011;69030;48.126;7.816;2024-02-26T18:08:22;2.47;;;2.15;;
79566;SDS011;69030;48.126;7.816;2024-02-26T18:10:48;2.83;;;2.22;;
79566;SDS011;69030;48.126;7.816;2024-02-26T18:13:16;1.65;;;0.77;;
79566;SDS011;69030;48.126;7.816;2024-02-26T18:15:42;1.77;;;1.65;;
79566;SDS011;69030;48.126;7.816;2024-02-26T18:18:08;1.80;;;1.23;;
79566;SDS011;69030;48.126;7.816;2024-02-26T18:20:34;2.45;;;2.13;;
79566;SDS011;69030;48.126;7.816;2024-02-26T18:23:00;2.40;;;2.20;;
79566;SDS011;69030;48.126;7.816;2024-02-26T18:25:26;1.65;;;0.93;;
79566;SDS011;69030;48.126;7.816;2024-02-26T18:27:51;2.50;;;2.25;;
79566;SDS011;69030;48.126;7.816;2024-02-26T18:30:18;2.35;;;2.15;;
79566;SDS011;69030;48.126;7.816;2024-02-26T18:32:44;2.65;;;2.20;;
79566;SDS011;69030;48.126;7.816;2024-02-26T18:35:10;2.60;;;2.40;;
79566;SDS011;69030;48.126;7.816;2024-02-26T18:40:12;1.90;;;1.17;;
79566;SDS011;69030;48.126;7.816;2024-02-26T18:42:37;5.82;;;3.10;;
79566;SDS011;69030;48.126;7.816;2024-02-26T18:45:04;2.67;;;1.92;;
79566;SDS011;69030;48.126;7.816;2024-02-26T18:47:32;2.72;;;2.10;;
79566;SDS011;69030;48.126;7.816;2024-02-26T18:49:57;3.58;;;2.00;;
79566;SDS011;69030;48.126;7.816;2024-02-26T18:52:24;3.33;;;3.03;;
79566;SDS011;69030;48.126;7.816;2024-02-26T18:54:50;3.67;;;3.28;;
79566;SDS011;69030;48.126;7.816;2024-02-26T18:57:16;5.85;;;2.10;;
79566;SDS011;69030;48.126;7.816;2024-02-26T18:59:41;4.75;;;2.83;;
79566;SDS011;69030;48.126;7.816;2024-02-26T19:02:08;5.18;;;3.72;;
79566;SDS011;69030;48.126;7.816;2024-02-26T19:04:34;3.67;;;3.30;;
79566;SDS011;69030;48.126;7.816;2024-02-26T19:07:00;5.00;;;3.70;;
79566;SDS011;69030;48.126;7.816;2024-02-26T19:09:26;6.85;;;3.88;;
79566;SDS011;69030;48.126;7.816;2024-02-26T19:11:52;4.63;;;2.65;;
79566;SDS011;69030;48.126;7.816;2024-02-26T19:14:20;4.45;;;3.55;;
79566;SDS011;69030;48.126;7.816;2024-02-26T19:16:46;4.70;;;2.90;;
79566;SDS011;69030;48.126;7.816;2024-02-26T19:19:11;4.70;;;2.80;;
79566;SDS011;69030;48.126;7.816;2024-02-26T19:21:37;2.45;;;1.75;;
79566;SDS011;69030;48.126;7.816;2024-02-26T19:24:02;3.22;;;2.53;;
79566;SDS011;69030;48.126;7.816;2024-02-26T19:26:29;3.95;;;1.65;;
79566;SDS011;69030;48.126;7.816;2024-02-26T19:28:55;3.25;;;2.88;;
79566;SDS011;69030;48.126;7.816;2024-02-26T19:31:20;4.40;;;2.45;;
79566;SDS011;69030;48.126;7.816;2024-02-26T19:33:46;3.67;;;2.00;;
79566;SDS011;69030;48.126;7.816;2024-02-26T19:36:12;3.63;;;1.73;;
79566;SDS011;69030;48.126;7.816;2024-02-26T19:38:38;3.92;;;2.70;;
79566;SDS011;69030;48.126;7.816;2024-02-26T19:41:04;3.25;;;2.20;;
79566;SDS011;69030;48.126;7.816;2024-02-26T19:43:29;4.57;;;3.70;;
79566;SDS011;69030;48.126;7.816;2024-02-26T19:45:54;7.63;;;3.22;;
79566;SDS011;69030;48.126;7.816;2024-02-26T19:48:20;7.15;;;4.40;;
79566;SDS011;69030;48.126;7.816;2024-02-26T19:50:47;12.00;;;6.63;;
79566;SDS011;69030;48.126;7.816;2024-02-26T19:53:12;14.38;;;6.93;;
79566;SDS011;69030;48.126;7.816;2024-02-26T19:55:38;35.97;;;13.25;;
79566;SDS011;69030;48.126;7.816;2024-02-26T19:58:03;47.92;;;18.23;;
79566;SDS011;69030;48.126;7.816;2024-02-26T20:00:29;35.60;;;16.15;;
79566;SDS011;69030;48.126;7.816;2024-02-26T20:02:55;40.55;;;20.05;;
79566;SDS011;69030;48.126;7.816;2024-02-26T20:05:20;25.98;;;12.52;;
79566;SDS011;69030;48.126;7.816;2024-02-26T20:07:47;16.10;;;9.23;;
79566;SDS011;69030;48.126;7.816;2024-02-26T20:10:13;10.20;;;6.85;;
79566;SDS011;69030;48.126;7.816;2024-02-26T20:12:41;8.30;;;5.15;;
79566;SDS011;69030;48.126;7.816;2024-02-26T20:15:07;5.55;;;3.60;;
79566;SDS011;69030;48.126;7.816;2024-02-26T20:17:33;6.93;;;4.38;;
79566;SDS011;69030;48.126;7.816;2024-02-26T20:19:58;7.45;;;4.82;;
79566;SDS011;69030;48.126;7.816;2024-02-26T20:22:24;8.50;;;5.22;;
79566;SDS011;69030;48.126;7.816;2024-02-26T20:24:50;7.78;;;4.97;;
79566;SDS011;69030;48.126;7.816;2024-02-26T20:27:17;7.82;;;4.35;;
79566;SDS011;69030;48.126;7.816;2024-02-26T20:29:42;8.23;;;4.75;;
79566;SDS011;69030;48.126;7.816;2024-02-26T20:32:08;8.15;;;3.92;;
79566;SDS011;69030;48.126;7.816;2024-02-26T20:34:33;7.53;;;3.10;;
79566;SDS011;69030;48.126;7.816;2024-02-26T20:36:59;6.22;;;5.15;;
79566;SDS011;69030;48.126;7.816;2024-02-26T20:39:26;7.05;;;3.55;;
79566;SDS011;69030;48.126;7.816;2024-02-26T20:44:54;5.90;;;4.35;;
79566;SDS011;69030;48.126;7.816;2024-02-26T20:47:20;7.68;;;4.63;;
79566;SDS011;69030;48.126;7.816;2024-02-26T20:49:46;8.40;;;4.80;;
79566;SDS011;69030;48.126;7.816;2024-02-26T20:52:12;4.85;;;2.33;;
79566;SDS011;69030;48.126;7.816;2024-02-26T20:54:37;5.55;;;3.20;;
79566;SDS011;69030;48.126;7.816;2024-02-26T20:57:04;5.80;;;5.30;;
79566;SDS011;69030;48.126;7.816;2024-02-26T20:59:30;4.38;;;2.33;;
79566;SDS011;69030;48.126;7.816;2024-02-26T21:01:59;4.68;;;3.03;;
79566;SDS011;69030;48.126;7.816;2024-02-26T21:04:24;5.50;;;4.30;;